| time (UTC) | temp F | wind direction | speed knots | gust knots | rain 1hr in | rain 24hr in | rain mn in | humidity % | barometer mb |
| 20260507040717 | 55 | 99 | 1.7 | 3.5 | 0.00 | 0.00 | 0.00 | 80 | 1019.9 |
| 20260507040003 | 56 | 99 | 1.7 | 3.5 | 0.00 | 0.00 | 0.00 | 80 | 1019.9 |
| 20260507035503 | 56 | 103 | 1.7 | 3.5 | 0.00 | 0.00 | 0.00 | 79 | 1019.9 |
| 20260507035003 | 56 | 102 | 1.7 | 2.6 | 0.00 | 0.00 | 0.00 | 79 | 1019.6 |
| 20260507034503 | 56 | 96 | 1.7 | 2.6 | 0.00 | 0.00 | 0.00 | 79 | 1019.9 |
| 20260507034003 | 56 | 95 | 1.7 | 2.6 | 0.00 | 0.00 | 0.00 | 79 | 1019.6 |
| 20260507033716 | 56 | 101 | 1.7 | 2.6 | 0.00 | 0.00 | 0.00 | 79 | 1019.6 |
| 20260507033003 | 56 | 113 | 1.7 | 2.6 | 0.00 | 0.00 | 0.00 | 78 | 1019.6 |
| 20260507032503 | 56 | 107 | 1.7 | 2.6 | 0.00 | 0.00 | 0.00 | 78 | 1019.6 |
| 20260507032003 | 56 | 113 | 1.7 | 2.6 | 0.00 | 0.00 | 0.00 | 78 | 1019.6 |
| 20260507031503 | 56 | 117 | 1.7 | 2.6 | 0.00 | 0.00 | 0.00 | 77 | 1019.6 |
| 20260507031003 | 57 | 113 | 1.7 | 2.6 | 0.00 | 0.00 | 0.00 | 77 | 1019.6 |
| 20260507030503 | 57 | 106 | 1.7 | 2.6 | 0.00 | 0.00 | 0.00 | 77 | 1019.6 |
| 20260507030003 | 57 | 100 | 1.7 | 2.6 | 0.00 | 0.00 | 0.00 | 77 | 1019.6 |
| 20260507025503 | 57 | 91 | 0.9 | 2.6 | 0.00 | 0.00 | 0.00 | 77 | 1019.6 |
| 20260507025003 | 57 | 93 | 0.9 | 2.6 | 0.00 | 0.00 | 0.00 | 76 | 1019.6 |
| 20260507024503 | 57 | 108 | 0.9 | 2.6 | 0.00 | 0.00 | 0.00 | 76 | 1019.6 |
| 20260507024003 | 57 | 121 | 0.9 | 3.5 | 0.00 | 0.00 | 0.00 | 77 | 1019.6 |
| 20260507023718 | 57 | 131 | 0.9 | 3.5 | 0.00 | 0.00 | 0.00 | 77 | 1019.6 |
| 20260507023003 | 56 | 156 | 0.9 | 3.5 | 0.00 | 0.00 | 0.00 | 77 | 1019.6 |
| 20260507022503 | 56 | 204 | 0.9 | 3.5 | 0.00 | 0.00 | 0.00 | 77 | 1019.6 |
| 20260507022003 | 56 | 188 | 1.7 | 3.5 | 0.00 | 0.00 | 0.00 | 77 | 1019.6 |
| 20260507021503 | 57 | 128 | 1.7 | 3.5 | 0.00 | 0.00 | 0.00 | 76 | 1019.6 |
| 20260507021003 | 57 | 99 | 1.7 | 3.5 | 0.00 | 0.00 | 0.00 | 76 | 1019.6 |
| 20260507020718 | 57 | 108 | 1.7 | 3.5 | 0.00 | 0.00 | 0.00 | 76 | 1019.6 |
| 20260507020003 | 57 | 118 | 1.7 | 3.5 | 0.00 | 0.00 | 0.00 | 76 | 1019.6 |
| 20260507015503 | 57 | 97 | 1.7 | 3.5 | 0.00 | 0.00 | 0.00 | 76 | 1019.6 |
| 20260507015217 | 57 | 98 | 1.7 | 3.5 | 0.00 | 0.00 | 0.00 | 76 | 1019.6 |
| 20260507014503 | 57 | 161 | 1.7 | 3.5 | 0.00 | 0.00 | 0.00 | 76 | 1019.6 |
| 20260507014003 | 57 | 167 | 1.7 | 3.5 | 0.00 | 0.00 | 0.00 | 76 | 1019.2 |
| 20260507013718 | 57 | 156 | 0.9 | 3.5 | 0.00 | 0.00 | 0.00 | 76 | 1019.2 |
| 20260507013003 | 57 | 141 | 1.7 | 4.3 | 0.00 | 0.00 | 0.00 | 75 | 1019.6 |
| 20260507012718 | 57 | 164 | 1.7 | 4.3 | 0.00 | 0.00 | 0.00 | 76 | 1019.2 |
| 20260507012003 | 57 | 145 | 1.7 | 4.3 | 0.00 | 0.00 | 0.00 | 75 | 1019.6 |
| 20260507011718 | 57 | 136 | 1.7 | 4.3 | 0.00 | 0.00 | 0.00 | 74 | 1019.6 |
| 20260507011003 | 58 | 101 | 1.7 | 5.2 | 0.00 | 0.00 | 0.00 | 74 | 1019.6 |
| 20260507010718 | 58 | 90 | 1.7 | 5.2 | 0.00 | 0.00 | 0.00 | 74 | 1019.6 |
| 20260507010003 | 57 | 214 | 2.6 | 7.8 | 0.00 | 0.00 | 0.00 | 75 | 1019.6 |
| 20260507005503 | 57 | 221 | 2.6 | 7.8 | 0.00 | 0.00 | 0.00 | 74 | 1019.6 |
| 20260507005216 | 57 | 219 | 2.6 | 7.8 | 0.00 | 0.00 | 0.00 | 74 | 1019.6 |
| 20260507004503 | 57 | 227 | 2.6 | 7.0 | 0.00 | 0.00 | 0.00 | 74 | 1019.6 |
| 20260507004003 | 58 | 140 | 1.7 | 4.3 | 0.00 | 0.00 | 0.00 | 73 | 1019.6 |
| 20260507003503 | 58 | 117 | 1.7 | 3.5 | 0.00 | 0.00 | 0.00 | 72 | 1019.6 |
| 20260507003003 | 58 | 113 | 1.7 | 3.5 | 0.00 | 0.00 | 0.00 | 71 | 1019.6 |
| 20260507002717 | 58 | 113 | 1.7 | 3.5 | 0.00 | 0.00 | 0.00 | 71 | 1019.6 |
| 20260507002003 | 58 | 108 | 1.7 | 4.3 | 0.00 | 0.00 | 0.00 | 72 | 1019.6 |
| 20260507001503 | 58 | 178 | 2.6 | 8.7 | 0.00 | 0.00 | 0.00 | 72 | 1019.6 |
| 20260507001003 | 57 | 222 | 3.5 | 8.7 | 0.00 | 0.00 | 0.00 | 72 | 1019.6 |
| 20260507000503 | 58 | 212 | 2.6 | 7.8 | 0.00 | 0.00 | 0.00 | 71 | 1019.6 |
| 20260507000003 | 58 | 128 | 1.7 | 5.2 | 0.00 | 0.00 | 0.00 | 70 | 1019.6 |
| 20260506235503 | 57 | 143 | 1.7 | 6.1 | 0.00 | 0.00 | 0.00 | 73 | 1019.6 |
| 20260506235004 | 57 | 187 | 2.6 | 6.1 | 0.00 | 0.00 | 0.00 | 73 | 1019.6 |
| 20260506234503 | 57 | 192 | 2.6 | 6.1 | 0.00 | 0.00 | 0.00 | 73 | 1019.2 |
| 20260506234003 | 57 | 214 | 3.5 | 8.7 | 0.00 | 0.00 | 0.00 | 72 | 1019.6 |
| 20260506233503 | 57 | 212 | 3.5 | 8.7 | 0.00 | 0.00 | 0.00 | 72 | 1019.6 |
| 20260506233003 | 58 | 160 | 2.6 | 6.1 | 0.00 | 0.00 | 0.00 | 70 | 1019.6 |
| 20260506232717 | 58 | 161 | 1.7 | 4.3 | 0.00 | 0.00 | 0.00 | 69 | 1019.6 |
| 20260506232003 | 58 | 104 | 1.7 | 4.3 | 0.00 | 0.00 | 0.00 | 69 | 1019.6 |
| 20260506231717 | 58 | 108 | 1.7 | 4.3 | 0.00 | 0.00 | 0.00 | 69 | 1019.6 |
| 20260506231003 | 58 | 109 | 2.6 | 7.0 | 0.00 | 0.00 | 0.00 | 69 | 1019.6 |
| 20260506230503 | 58 | 121 | 2.6 | 7.0 | 0.00 | 0.00 | 0.00 | 70 | 1019.6 |
| 20260506230003 | 58 | 196 | 1.7 | 6.1 | 0.00 | 0.00 | 0.00 | 70 | 1019.6 |
| 20260506225503 | 58 | 146 | 2.6 | 6.1 | 0.00 | 0.00 | 0.00 | 69 | 1019.6 |
| 20260506225003 | 58 | 116 | 1.7 | 3.5 | 0.00 | 0.00 | 0.00 | 70 | 1019.6 |
| 20260506224503 | 58 | 132 | 1.7 | 3.5 | 0.00 | 0.00 | 0.00 | 71 | 1019.6 |
| 20260506224003 | 58 | 168 | 1.7 | 8.7 | 0.00 | 0.00 | 0.00 | 71 | 1019.6 |
| 20260506223503 | 58 | 130 | 2.6 | 8.7 | 0.00 | 0.00 | 0.00 | 71 | 1019.6 |
| 20260506223003 | 58 | 106 | 2.6 | 5.2 | 0.00 | 0.00 | 0.00 | 72 | 1019.6 |
| 20260506222716 | 57 | 110 | 2.6 | 5.2 | 0.00 | 0.00 | 0.00 | 72 | 1019.6 |
| 20260506222003 | 57 | 108 | 1.7 | 5.2 | 0.00 | 0.00 | 0.00 | 72 | 1019.9 |
| 20260506221503 | 57 | 160 | 1.7 | 6.1 | 0.00 | 0.00 | 0.00 | 73 | 1019.9 |
| 20260506221218 | 57 | 215 | 1.7 | 6.1 | 0.00 | 0.00 | 0.00 | 73 | 1019.9 |
| 20260506220503 | 57 | 184 | 2.6 | 6.1 | 0.00 | 0.00 | 0.00 | 73 | 1019.9 |
| 20260506220003 | 57 | 202 | 1.7 | 5.2 | 0.00 | 0.00 | 0.00 | 73 | 1019.9 |
| 20260506215503 | 57 | 137 | 2.6 | 5.2 | 0.00 | 0.00 | 0.00 | 72 | 1019.6 |
| 20260506215003 | 58 | 111 | 1.7 | 5.2 | 0.00 | 0.00 | 0.00 | 73 | 1019.9 |
| 20260506214503 | 58 | 110 | 1.7 | 4.3 | 0.00 | 0.00 | 0.00 | 72 | 1019.9 |
| 20260506214003 | 58 | 122 | 1.7 | 7.0 | 0.00 | 0.00 | 0.00 | 73 | 1019.9 |
| 20260506213503 | 57 | 160 | 1.7 | 7.0 | 0.00 | 0.00 | 0.00 | 74 | 1019.9 |
| 20260506213003 | 57 | 156 | 1.7 | 5.2 | 0.00 | 0.00 | 0.00 | 74 | 1019.9 |
| 20260506212718 | 57 | 135 | 1.7 | 5.2 | 0.00 | 0.00 | 0.00 | 74 | 1019.9 |
| 20260506212003 | 57 | 212 | 1.7 | 7.0 | 0.00 | 0.00 | 0.00 | 76 | 1019.9 |
| 20260506211503 | 56 | 234 | 2.6 | 7.8 | 0.00 | 0.00 | 0.00 | 76 | 1019.9 |
| 20260506211003 | 57 | 204 | 2.6 | 7.8 | 0.00 | 0.00 | 0.00 | 76 | 1019.6 |
| 20260506210503 | 57 | 141 | 1.7 | 5.2 | 0.00 | 0.00 | 0.00 | 77 | 1020.3 |
| 20260506210003 | 57 | 123 | 1.7 | 5.2 | 0.00 | 0.00 | 0.00 | 77 | 1019.9 |
| 20260506205503 | 57 | 99 | 1.7 | 3.5 | 0.00 | 0.00 | 0.00 | 78 | 1019.9 |
| 20260506205003 | 56 | 138 | 1.7 | 5.2 | 0.00 | 0.00 | 0.00 | 77 | 1019.9 |
| 20260506204503 | 56 | 138 | 1.7 | 5.2 | 0.00 | 0.00 | 0.00 | 78 | 1019.9 |
| 20260506204003 | 57 | 108 | 1.7 | 3.5 | 0.00 | 0.00 | 0.00 | 78 | 1019.6 |
| 20260506203503 | 57 | 110 | 1.7 | 4.3 | 0.00 | 0.00 | 0.00 | 77 | 1019.9 |
| 20260506203003 | 56 | 121 | 1.7 | 7.8 | 0.00 | 0.00 | 0.00 | 79 | 1019.9 |
| 20260506202503 | 56 | 107 | 1.7 | 7.8 | 0.00 | 0.00 | 0.00 | 77 | 1019.9 |
| 20260506202217 | 57 | 103 | 1.7 | 7.8 | 0.00 | 0.00 | 0.00 | 77 | 1019.9 |
| 20260506201718 | 57 | 100 | 1.7 | 3.5 | 0.00 | 0.00 | 0.00 | 77 | 1019.6 |
| 20260506201003 | 56 | 124 | 1.7 | 5.2 | 0.00 | 0.00 | 0.00 | 78 | 1019.6 |
| 20260506200503 | 56 | 147 | 2.6 | 7.0 | 0.00 | 0.00 | 0.00 | 79 | 1019.9 |
| 20260506200217 | 56 | 126 | 1.7 | 7.0 | 0.00 | 0.00 | 0.00 | 79 | 1019.9 |
| 20260506195503 | 56 | 122 | 1.7 | 5.2 | 0.00 | 0.00 | 0.00 | 79 | 1019.9 |
| 20260506195003 | 56 | 123 | 1.7 | 4.3 | 0.00 | 0.00 | 0.00 | 80 | 1019.6 |
| 20260506194503 | 56 | 184 | 2.6 | 4.3 | 0.00 | 0.00 | 0.00 | 80 | 1019.6 |
| 20260506194217 | 56 | 198 | 2.6 | 4.3 | 0.00 | 0.00 | 0.00 | 81 | 1019.9 |
| 20260506193503 | 56 | 119 | 2.6 | 5.2 | 0.00 | 0.00 | 0.00 | 81 | 1019.6 |
| 20260506193003 | 56 | 151 | 1.7 | 7.8 | 0.00 | 0.00 | 0.00 | 82 | 1019.6 |
| 20260506192503 | 55 | 220 | 1.7 | 7.8 | 0.00 | 0.00 | 0.00 | 85 | 1019.9 |
| 20260506192003 | 56 | 232 | 2.6 | 7.8 | 0.00 | 0.00 | 0.00 | 84 | 1019.6 |
| 20260506191503 | 56 | 232 | 3.5 | 7.8 | 0.00 | 0.00 | 0.00 | 83 | 1019.6 |
| 20260506191216 | 56 | 225 | 3.5 | 7.8 | 0.00 | 0.00 | 0.00 | 84 | 1019.6 |
| 20260506190503 | 56 | 244 | 2.6 | 5.2 | 0.00 | 0.00 | 0.00 | 83 | 1019.6 |
| 20260506190003 | 56 | 200 | 1.7 | 5.2 | 0.00 | 0.00 | 0.00 | 83 | 1019.6 |
| 20260506185503 | 55 | 204 | 1.7 | 5.2 | 0.00 | 0.00 | 0.00 | 84 | 1019.6 |
| 20260506185003 | 55 | 239 | 2.6 | 6.1 | 0.00 | 0.00 | 0.00 | 85 | 1019.6 |
| 20260506184717 | 55 | 226 | 2.6 | 6.1 | 0.00 | 0.00 | 0.00 | 86 | 1019.6 |
| 20260506184003 | 55 | 99 | 1.7 | 3.5 | 0.00 | 0.00 | 0.00 | 88 | 1019.6 |
| 20260506183503 | 54 | 98 | 1.7 | 4.3 | 0.00 | 0.00 | 0.00 | 89 | 1019.6 |
| 20260506183003 | 54 | 113 | 1.7 | 4.3 | 0.00 | 0.00 | 0.00 | 90 | 1019.6 |
| 20260506182503 | 54 | 124 | 1.7 | 3.5 | 0.00 | 0.00 | 0.00 | 90 | 1019.6 |
| 20260506182003 | 54 | 137 | 1.7 | 3.5 | 0.00 | 0.00 | 0.00 | 91 | 1019.6 |
| 20260506181717 | 54 | 152 | 1.7 | 3.5 | 0.00 | 0.00 | 0.00 | 91 | 1019.6 |
| 20260506181003 | 54 | 187 | 2.6 | 5.2 | 0.00 | 0.00 | 0.00 | 91 | 1019.6 |
| 20260506180503 | 54 | 204 | 2.6 | 5.2 | 0.00 | 0.00 | 0.00 | 91 | 1019.6 |
| 20260506180004 | 54 | 200 | 1.7 | 4.3 | 0.00 | 0.00 | 0.00 | 89 | 1019.2 |
| 20260506175503 | 54 | 142 | 2.6 | 5.2 | 0.00 | 0.00 | 0.00 | 89 | 1018.9 |
| 20260506175003 | 55 | 102 | 2.6 | 5.2 | 0.00 | 0.00 | 0.00 | 88 | 1019.2 |
| 20260506174503 | 55 | 116 | 2.6 | 3.5 | 0.00 | 0.00 | 0.00 | 87 | 1018.9 |
| 20260506174003 | 55 | 124 | 1.7 | 3.5 | 0.00 | 0.00 | 0.00 | 87 | 1019.2 |
| 20260506173717 | 55 | 124 | 1.7 | 3.5 | 0.00 | 0.00 | 0.00 | 87 | 1018.9 |
| 20260506173218 | 55 | 110 | 1.7 | 3.5 | 0.00 | 0.00 | 0.00 | 88 | 1019.2 |
| 20260506172503 | 55 | 73 | 1.7 | 5.2 | 0.00 | 0.00 | 0.00 | 88 | 1019.2 |
| 20260506172003 | 54 | 65 | 2.6 | 5.2 | 0.00 | 0.00 | 0.00 | 87 | 1019.2 |
| 20260506171717 | 55 | 86 | 2.6 | 5.2 | 0.00 | 0.00 | 0.00 | 87 | 1019.6 |
| 20260506171003 | 54 | 122 | 2.6 | 5.2 | 0.00 | 0.00 | 0.00 | 88 | 1019.2 |
| 20260506170503 | 54 | 158 | 1.7 | 5.2 | 0.00 | 0.00 | 0.00 | 89 | 1019.6 |
| 20260506170217 | 54 | 179 | 2.6 | 6.1 | 0.00 | 0.00 | 0.00 | 89 | 1019.2 |
| 20260506165503 | 54 | 167 | 2.6 | 7.0 | 0.00 | 0.00 | 0.00 | 90 | 1019.6 |
| 20260506165003 | 54 | 170 | 2.6 | 5.2 | 0.00 | 0.00 | 0.00 | 89 | 1019.2 |
| 20260506164503 | 54 | 233 | 2.6 | 5.2 | 0.00 | 0.00 | 0.00 | 90 | 1018.9 |
| 20260506164003 | 53 | 250 | 2.6 | 5.2 | 0.00 | 0.00 | 0.00 | 90 | 1018.9 |
| 20260506163503 | 54 | 244 | 2.6 | 5.2 | 0.00 | 0.00 | 0.00 | 90 | 1019.2 |
| 20260506163003 | 54 | 214 | 2.6 | 7.0 | 0.00 | 0.00 | 0.00 | 90 | 1019.2 |
| 20260506162503 | 54 | 200 | 2.6 | 7.0 | 0.00 | 0.00 | 0.00 | 90 | 1018.9 |
| 20260506162003 | 54 | 198 | 2.6 | 5.2 | 0.00 | 0.00 | 0.00 | 90 | 1018.9 |
| 20260506161503 | 54 | 185 | 1.7 | 5.2 | 0.00 | 0.00 | 0.00 | 89 | 1018.9 |
| 20260506161003 | 54 | 135 | 1.7 | 5.2 | 0.00 | 0.00 | 0.00 | 89 | 1018.9 |
| 20260506160718 | 54 | 125 | 1.7 | 5.2 | 0.00 | 0.00 | 0.00 | 89 | 1018.9 |
| 20260506160003 | 54 | 102 | 1.7 | 5.2 | 0.00 | 0.00 | 0.00 | 88 | 1018.5 |
| 20260506155503 | 54 | 80 | 1.7 | 4.3 | 0.00 | 0.00 | 0.00 | 88 | 1018.5 |
| 20260506155217 | 54 | 87 | 2.6 | 5.2 | 0.00 | 0.00 | 0.00 | 89 | 1018.5 |
| 20260506154503 | 54 | 137 | 2.6 | 5.2 | 0.00 | 0.00 | 0.00 | 89 | 1018.5 |
| 20260506154217 | 54 | 130 | 2.6 | 5.2 | 0.00 | 0.00 | 0.00 | 88 | 1018.5 |
| 20260506153503 | 54 | 95 | 1.7 | 5.2 | 0.00 | 0.00 | 0.00 | 89 | 1018.9 |
| 20260506153003 | 54 | 104 | 1.7 | 4.3 | 0.00 | 0.00 | 0.00 | 89 | 1018.9 |
| 20260506152503 | 54 | 163 | 1.7 | 4.3 | 0.00 | 0.00 | 0.00 | 89 | 1018.5 |
| 20260506152003 | 54 | 198 | 1.7 | 3.5 | 0.00 | 0.00 | 0.00 | 89 | 1018.9 |
| 20260506151503 | 54 | 193 | 1.7 | 4.3 | 0.00 | 0.00 | 0.00 | 89 | 1018.9 |
| 20260506151003 | 54 | 126 | 1.7 | 4.3 | 0.00 | 0.00 | 0.00 | 89 | 1018.9 |
| 20260506150503 | 54 | 97 | 1.7 | 4.3 | 0.00 | 0.00 | 0.00 | 89 | 1018.9 |
| 20260506150003 | 54 | 102 | 2.6 | 4.3 | 0.00 | 0.00 | 0.00 | 89 | 1018.5 |
| 20260506145503 | 54 | 101 | 2.6 | 5.2 | 0.00 | 0.00 | 0.00 | 89 | 1018.5 |
| 20260506145003 | 54 | 92 | 2.6 | 5.2 | 0.00 | 0.00 | 0.00 | 89 | 1018.5 |
| 20260506144503 | 54 | 85 | 2.6 | 4.3 | 0.00 | 0.00 | 0.00 | 89 | 1018.5 |
| 20260506144003 | 54 | 90 | 1.7 | 4.3 | 0.00 | 0.00 | 0.00 | 89 | 1018.5 |
| 20260506143503 | 54 | 85 | 1.7 | 4.3 | 0.00 | 0.00 | 0.00 | 89 | 1018.5 |
| 20260506143217 | 54 | 78 | 1.7 | 4.3 | 0.00 | 0.00 | 0.00 | 89 | 1018.5 |
| 20260506142503 | 54 | 96 | 2.6 | 4.3 | 0.00 | 0.00 | 0.00 | 90 | 1018.5 |
| 20260506142003 | 53 | 120 | 2.6 | 4.3 | 0.00 | 0.00 | 0.00 | 90 | 1018.5 |
| 20260506141503 | 53 | 118 | 2.6 | 5.2 | 0.00 | 0.00 | 0.00 | 90 | 1018.5 |
| 20260506141003 | 53 | 96 | 2.6 | 5.2 | 0.00 | 0.00 | 0.00 | 90 | 1018.5 |
| 20260506140503 | 54 | 87 | 1.7 | 5.2 | 0.00 | 0.00 | 0.00 | 89 | 1018.5 |
| 20260506140216 | 54 | 88 | 1.7 | 4.3 | 0.00 | 0.00 | 0.00 | 89 | 1018.5 |
| 20260506135503 | 54 | 92 | 2.6 | 5.2 | 0.00 | 0.00 | 0.00 | 89 | 1018.2 |
| 20260506135216 | 54 | 99 | 2.6 | 5.2 | 0.00 | 0.00 | 0.00 | 89 | 1018.5 |
| 20260506134503 | 54 | 118 | 2.6 | 4.3 | 0.00 | 0.00 | 0.00 | 89 | 1018.5 |
| 20260506134003 | 54 | 102 | 2.6 | 4.3 | 0.00 | 0.00 | 0.00 | 89 | 1018.2 |
| 20260506133503 | 54 | 113 | 1.7 | 3.5 | 0.00 | 0.00 | 0.00 | 89 | 1018.5 |
| 20260506133003 | 54 | 133 | 2.6 | 7.0 | 0.00 | 0.00 | 0.00 | 88 | 1018.5 |
| 20260506132503 | 54 | 135 | 2.6 | 7.0 | 0.00 | 0.00 | 0.00 | 88 | 1018.5 |
| 20260506132003 | 54 | 137 | 2.6 | 4.3 | 0.00 | 0.00 | 0.00 | 88 | 1018.2 |
| 20260506131503 | 54 | 55 | 1.7 | 4.3 | 0.00 | 0.00 | 0.00 | 88 | 1018.2 |
| 20260506131003 | 54 | 32 | 1.7 | 4.3 | 0.00 | 0.00 | 0.00 | 88 | 1018.2 |
| 20260506130717 | 54 | 25 | 1.7 | 4.3 | 0.00 | 0.00 | 0.00 | 88 | 1017.9 |
| 20260506130218 | 54 | 58 | 1.7 | 4.3 | 0.00 | 0.00 | 0.00 | 88 | 1017.9 |
| 20260506125503 | 54 | 69 | 1.7 | 4.3 | 0.00 | 0.00 | 0.00 | 88 | 1017.9 |
| 20260506125003 | 54 | 88 | 2.6 | 4.3 | 0.00 | 0.00 | 0.00 | 88 | 1017.9 |
| 20260506124503 | 54 | 121 | 2.6 | 5.2 | 0.00 | 0.00 | 0.00 | 87 | 1018.2 |
| 20260506124003 | 54 | 160 | 2.6 | 5.2 | 0.00 | 0.00 | 0.00 | 88 | 1017.9 |
| 20260506123503 | 54 | 183 | 1.7 | 4.3 | 0.00 | 0.00 | 0.00 | 87 | 1017.9 |
| 20260506123218 | 54 | 165 | 1.7 | 4.3 | 0.00 | 0.00 | 0.00 | 87 | 1017.9 |
| 20260506122717 | 54 | 136 | 1.7 | 5.2 | 0.00 | 0.00 | 0.00 | 87 | 1017.9 |
| 20260506122003 | 54 | 150 | 2.6 | 5.2 | 0.00 | 0.00 | 0.00 | 87 | 1017.5 |
| 20260506121503 | 54 | 126 | 1.7 | 3.5 | 0.00 | 0.00 | 0.00 | 87 | 1017.9 |
| 20260506121003 | 54 | 162 | 1.7 | 6.1 | 0.00 | 0.00 | 0.00 | 87 | 1017.9 |
| 20260506120503 | 54 | 196 | 1.7 | 6.1 | 0.00 | 0.00 | 0.00 | 87 | 1017.5 |
| 20260506120003 | 54 | 181 | 2.6 | 5.2 | 0.00 | 0.00 | 0.00 | 87 | 1017.9 |
| 20260506115503 | 54 | 199 | 2.6 | 6.1 | 0.00 | 0.00 | 0.00 | 87 | 1017.5 |
| 20260506115003 | 54 | 271 | 2.6 | 6.1 | 0.00 | 0.00 | 0.00 | 87 | 1017.5 |
| 20260506114503 | 54 | 331 | 1.7 | 6.1 | 0.00 | 0.00 | 0.00 | 87 | 1017.9 |
| 20260506114218 | 54 | 71 | 1.7 | 3.5 | 0.00 | 0.00 | 0.00 | 87 | 1017.9 |
| 20260506113503 | 54 | 214 | 1.7 | 5.2 | 0.00 | 0.00 | 0.00 | 87 | 1017.5 |
| 20260506113003 | 54 | 183 | 1.7 | 5.2 | 0.00 | 0.00 | 0.00 | 87 | 1017.9 |
| 20260506112503 | 54 | 103 | 1.7 | 3.5 | 0.00 | 0.00 | 0.00 | 88 | 1017.5 |
| 20260506112217 | 54 | 107 | 1.7 | 3.5 | 0.00 | 0.00 | 0.00 | 88 | 1017.5 |
| 20260506111503 | 54 | 101 | 1.7 | 2.6 | 0.00 | 0.00 | 0.00 | 88 | 1017.5 |
| 20260506111003 | 54 | 105 | 1.7 | 3.5 | 0.00 | 0.00 | 0.00 | 89 | 1017.2 |
| 20260506110503 | 54 | 113 | 1.7 | 3.5 | 0.00 | 0.00 | 0.00 | 89 | 1017.2 |
| 20260506110003 | 54 | 104 | 1.7 | 3.5 | 0.00 | 0.00 | 0.00 | 89 | 1017.2 |
| 20260506105716 | 54 | 102 | 1.7 | 3.5 | 0.00 | 0.00 | 0.00 | 90 | 1017.2 |
| 20260506105003 | 54 | 111 | 1.7 | 3.5 | 0.00 | 0.00 | 0.00 | 91 | 1016.8 |
| 20260506104503 | 54 | 109 | 1.7 | 2.6 | 0.00 | 0.00 | 0.00 | 91 | 1017.2 |
| 20260506104003 | 53 | 104 | 1.7 | 2.6 | 0.00 | 0.00 | 0.00 | 92 | 1017.2 |
| 20260506103503 | 53 | 97 | 1.7 | 3.5 | 0.00 | 0.00 | 0.00 | 94 | 1017.2 |
| 20260506103003 | 52 | 92 | 1.7 | 3.5 | 0.00 | 0.00 | 0.00 | 95 | 1016.8 |
| 20260506102503 | 52 | 94 | 1.7 | 2.6 | 0.00 | 0.00 | 0.00 | 95 | 1016.8 |
| 20260506102003 | 52 | 94 | 1.7 | 2.6 | 0.00 | 0.00 | 0.00 | 96 | 1017.2 |
| 20260506101503 | 52 | 90 | 1.7 | 2.6 | 0.00 | 0.00 | 0.00 | 96 | 1016.8 |
| 20260506101003 | 52 | 91 | 1.7 | 2.6 | 0.00 | 0.00 | 0.00 | 96 | 1016.8 |
| 20260506100503 | 51 | 88 | 1.7 | 2.6 | 0.00 | 0.00 | 0.00 | 96 | 1016.8 |
| 20260506100003 | 51 | 87 | 1.7 | 1.7 | 0.00 | 0.00 | 0.00 | 95 | 1016.8 |
| 20260506095503 | 51 | 87 | 1.7 | 1.7 | 0.00 | 0.00 | 0.00 | 95 | 1016.8 |
| 20260506095003 | 51 | 89 | 1.7 | 2.6 | 0.00 | 0.00 | 0.00 | 95 | 1016.8 |
| 20260506094503 | 51 | 90 | 1.7 | 2.6 | 0.00 | 0.00 | 0.00 | 95 | 1016.5 |
| 20260506094003 | 51 | 92 | 1.7 | 2.6 | 0.00 | 0.00 | 0.00 | 94 | 1016.5 |
| 20260506093718 | 52 | 94 | 1.7 | 2.6 | 0.00 | 0.00 | 0.00 | 94 | 1016.8 |
| 20260506093003 | 52 | 92 | 0.9 | 1.7 | 0.00 | 0.00 | 0.00 | 94 | 1016.8 |
| 20260506092503 | 52 | 94 | 0.9 | 1.7 | 0.00 | 0.00 | 0.00 | 94 | 1016.8 |
| 20260506092003 | 52 | 92 | 0.9 | 1.7 | 0.00 | 0.00 | 0.00 | 94 | 1016.5 |
| 20260506091503 | 52 | 89 | 0.9 | 1.7 | 0.00 | 0.00 | 0.00 | 94 | 1016.5 |
| 20260506091003 | 52 | 84 | 0.9 | 1.7 | 0.00 | 0.00 | 0.00 | 94 | 1016.5 |
| 20260506090503 | 52 | 82 | 0.9 | 1.7 | 0.00 | 0.00 | 0.00 | 94 | 1016.2 |
| 20260506090003 | 52 | 86 | 0.9 | 1.7 | 0.00 | 0.00 | 0.00 | 94 | 1016.5 |
| 20260506085503 | 52 | 89 | 0.9 | 1.7 | 0.00 | 0.00 | 0.00 | 94 | 1016.5 |
| 20260506085003 | 53 | 87 | 0.9 | 1.7 | 0.00 | 0.00 | 0.00 | 94 | 1016.5 |
| 20260506084503 | 53 | 88 | 0.9 | 1.7 | 0.00 | 0.00 | 0.00 | 93 | 1016.5 |
| 20260506084003 | 53 | 93 | 0.9 | 2.6 | 0.00 | 0.00 | 0.00 | 93 | 1016.2 |
| 20260506083718 | 53 | 94 | 0.9 | 2.6 | 0.00 | 0.00 | 0.00 | 93 | 1016.5 |
| 20260506083003 | 53 | 84 | 0.9 | 2.6 | 0.00 | 0.00 | 0.00 | 94 | 1016.5 |
| 20260506082503 | 53 | 85 | 0.9 | 1.7 | 0.00 | 0.00 | 0.00 | 93 | 1016.2 |
| 20260506082003 | 53 | 92 | 0.9 | 1.7 | 0.00 | 0.00 | 0.00 | 93 | 1016.2 |
| 20260506081503 | 53 | 90 | 0.9 | 1.7 | 0.00 | 0.00 | 0.00 | 93 | 1016.2 |
| 20260506081003 | 52 | 92 | 0.9 | 1.7 | 0.00 | 0.00 | 0.00 | 93 | 1016.2 |
| 20260506080503 | 52 | 94 | 1.7 | 1.7 | 0.00 | 0.00 | 0.00 | 92 | 1015.8 |
| 20260506073503 | 53 | 100 | 1.7 | 2.6 | 0.00 | 0.00 | 0.00 | 92 | 1015.8 |
| 20260506073003 | 53 | 98 | 1.7 | 2.6 | 0.00 | 0.00 | 0.00 | 92 | 1015.8 |
| 20260506072503 | 53 | 94 | 0.9 | 1.7 | 0.00 | 0.00 | 0.00 | 92 | 1015.8 |
| 20260506072003 | 53 | 94 | 0.9 | 1.7 | 0.00 | 0.00 | 0.00 | 92 | 1015.8 |
| 20260506071503 | 53 | 85 | 1.7 | 1.7 | 0.00 | 0.00 | 0.00 | 92 | 1015.8 |
| 20260506071003 | 53 | 83 | 1.7 | 2.6 | 0.00 | 0.00 | 0.00 | 92 | 1015.8 |
| 20260506070503 | 53 | 85 | 1.7 | 2.6 | 0.00 | 0.00 | 0.00 | 91 | 1015.8 |
| 20260506062003 | 54 | 87 | 0.9 | 1.7 | 0.00 | 0.00 | 0.00 | 88 | 1015.5 |
| 20260506061503 | 54 | 83 | 1.7 | 1.7 | 0.00 | 0.00 | 0.00 | 89 | 1015.5 |
| 20260506061003 | 54 | 83 | 1.7 | 1.7 | 0.00 | 0.00 | 0.00 | 89 | 1015.1 |
| 20260506060503 | 54 | 85 | 1.7 | 1.7 | 0.00 | 0.00 | 0.00 | 88 | 1015.1 |
| 20260506051003 | 56 | 88 | 0.9 | 1.7 | 0.00 | 0.00 | 0.00 | 85 | 1014.8 |
| 20260506050503 | 56 | 89 | 0.9 | 1.7 | 0.00 | 0.00 | 0.00 | 85 | 1014.8 |
| 20260506045003 | 56 | 90 | 1.7 | 2.6 | 0.00 | 0.00 | 0.00 | 84 | 1014.5 |
| 20260506044718 | 56 | 88 | 1.7 | 1.7 | 0.00 | 0.00 | 0.00 | 83 | 1014.8 |
| 20260506044003 | 57 | 89 | 1.7 | 1.7 | 0.00 | 0.00 | 0.00 | 82 | 1014.8 |
| 20260506043503 | 57 | 88 | 1.7 | 1.7 | 0.00 | 0.00 | 0.00 | 81 | 1014.8 |
| 20260506043217 | 57 | 85 | 1.7 | 1.7 | 0.00 | 0.00 | 0.00 | 81 | 1014.5 |
| 20260506042503 | 58 | 86 | 0.9 | 1.7 | 0.00 | 0.00 | 0.00 | 80 | 1014.5 |
| 20260506042003 | 58 | 88 | 0.9 | 1.7 | 0.00 | 0.00 | 0.00 | 80 | 1014.5 |
| 20260506041503 | 58 | 87 | 0.9 | 1.7 | 0.00 | 0.00 | 0.00 | 79 | 1014.5 |
| 20260506041003 | 58 | 92 | 1.7 | 1.7 | 0.00 | 0.00 | 0.00 | 78 | 1014.5 |